sensor_id;sensor_type;location;lat;lon;timestamp;temperature;humidity
21387;DHT22;10854;45.922;6.716;2022-12-07T00:12:24;-3.90;99.90
21387;DHT22;10854;45.922;6.716;2022-12-07T00:17:01;-4.00;99.90
21387;DHT22;10854;45.922;6.716;2022-12-07T00:21:38;-4.00;99.90
21387;DHT22;10854;45.922;6.716;2022-12-07T00:26:06;-4.00;99.90
21387;DHT22;10854;45.922;6.716;2022-12-07T00:30:34;-4.10;99.90
21387;DHT22;10854;45.922;6.716;2022-12-07T00:46:54;-4.20;99.90
21387;DHT22;10854;45.922;6.716;2022-12-07T00:51:24;-4.20;99.90
21387;DHT22;10854;45.922;6.716;2022-12-07T01:29:33;-3.30;99.90
21387;DHT22;10854;45.922;6.716;2022-12-07T01:34:01;-3.30;99.90
21387;DHT22;10854;45.922;6.716;2022-12-07T02:32:37;-1.70;99.90
21387;DHT22;10854;45.922;6.716;2022-12-07T02:50:14;-1.40;99.90
21387;DHT22;10854;45.922;6.716;2022-12-07T02:54:37;-1.30;99.90
21387;DHT22;10854;45.922;6.716;2022-12-07T03:07:51;-1.10;99.90
21387;DHT22;10854;45.922;6.716;2022-12-07T03:12:29;-1.10;99.90
21387;DHT22;10854;45.922;6.716;2022-12-07T03:16:35;-1.10;99.90
21387;DHT22;10854;45.922;6.716;2022-12-07T03:20:23;-1.10;99.90
21387;DHT22;10854;45.922;6.716;2022-12-07T03:24:22;-1.10;99.90
21387;DHT22;10854;45.922;6.716;2022-12-07T04:14:55;-0.50;99.90
21387;DHT22;10854;45.922;6.716;2022-12-07T04:19:02;-0.50;99.90
21387;DHT22;10854;45.922;6.716;2022-12-07T04:23:08;-0.50;99.90
21387;DHT22;10854;45.922;6.716;2022-12-07T04:26:36;-0.50;99.90
21387;DHT22;10854;45.922;6.716;2022-12-07T04:48:13;-0.40;99.90
21387;DHT22;10854;45.922;6.716;2022-12-07T04:52:54;-0.40;99.90
21387;DHT22;10854;45.922;6.716;2022-12-07T04:57:29;-0.40;99.90
21387;DHT22;10854;45.922;6.716;2022-12-07T05:02:23;-0.40;99.90
21387;DHT22;10854;45.922;6.716;2022-12-07T05:06:20;-0.40;99.90
21387;DHT22;10854;45.922;6.716;2022-12-07T05:10:48;-0.40;99.90
21387;DHT22;10854;45.922;6.716;2022-12-07T05:14:51;-0.50;99.90
21387;DHT22;10854;45.922;6.716;2022-12-07T05:18:59;-0.50;99.90
21387;DHT22;10854;45.922;6.716;2022-12-07T05:26:18;-0.50;99.90
21387;DHT22;10854;45.922;6.716;2022-12-07T05:30:42;-0.40;99.90
21387;DHT22;10854;45.922;6.716;2022-12-07T05:35:07;-0.40;99.90
21387;DHT22;10854;45.922;6.716;2022-12-07T05:39:44;-0.40;99.90
21387;DHT22;10854;45.922;6.716;2022-12-07T05:47:41;-0.40;99.90
21387;DHT22;10854;45.922;6.716;2022-12-07T05:51:58;-0.50;99.90
21387;DHT22;10854;45.922;6.716;2022-12-07T05:55:24;-0.50;99.90
21387;DHT22;10854;45.922;6.716;2022-12-07T05:59:44;-0.50;99.90
21387;DHT22;10854;45.922;6.716;2022-12-07T06:04:10;-0.50;99.90
21387;DHT22;10854;45.922;6.716;2022-12-07T06:08:26;-0.50;99.90
21387;DHT22;10854;45.922;6.716;2022-12-07T06:13:13;-0.50;99.90
21387;DHT22;10854;45.922;6.716;2022-12-07T06:17:36;-0.50;99.90
21387;DHT22;10854;45.922;6.716;2022-12-07T06:25:39;-0.50;99.90
21387;DHT22;10854;45.922;6.716;2022-12-07T06:33:17;-0.50;99.90
21387;DHT22;10854;45.922;6.716;2022-12-07T06:37:08;-0.50;99.90
21387;DHT22;10854;45.922;6.716;2022-12-07T06:40:55;-0.50;99.90
21387;DHT22;10854;45.922;6.716;2022-12-07T06:44:38;-0.50;99.90
21387;DHT22;10854;45.922;6.716;2022-12-07T06:48:35;-0.60;99.90
21387;DHT22;10854;45.922;6.716;2022-12-07T06:53:19;-0.50;99.90
21387;DHT22;10854;45.922;6.716;2022-12-07T06:57:22;-0.50;99.90
21387;DHT22;10854;45.922;6.716;2022-12-07T07:06:21;-0.40;99.90
21387;DHT22;10854;45.922;6.716;2022-12-07T07:10:05;-0.40;99.90
21387;DHT22;10854;45.922;6.716;2022-12-07T07:18:03;-0.40;99.90
21387;DHT22;10854;45.922;6.716;2022-12-07T07:24:56;-0.30;99.90
21387;DHT22;10854;45.922;6.716;2022-12-07T07:31:55;-0.40;99.90
21387;DHT22;10854;45.922;6.716;2022-12-07T07:41:15;-0.40;99.90
21387;DHT22;10854;45.922;6.716;2022-12-07T07:45:03;-0.40;99.90
21387;DHT22;10854;45.922;6.716;2022-12-07T07:49:34;-0.40;99.90
21387;DHT22;10854;45.922;6.716;2022-12-07T07:53:27;-0.40;99.90
21387;DHT22;10854;45.922;6.716;2022-12-07T07:57:44;-0.40;99.90
21387;DHT22;10854;45.922;6.716;2022-12-07T08:01:47;-0.50;99.90
21387;DHT22;10854;45.922;6.716;2022-12-07T08:10:34;-0.50;99.90
21387;DHT22;10854;45.922;6.716;2022-12-07T08:15:14;-0.40;99.90
21387;DHT22;10854;45.922;6.716;2022-12-07T08:23:26;-0.30;99.90
21387;DHT22;10854;45.922;6.716;2022-12-07T08:27:41;-0.30;99.90
21387;DHT22;10854;45.922;6.716;2022-12-07T08:36:33;-0.20;99.90
21387;DHT22;10854;45.922;6.716;2022-12-07T08:41:02;-0.20;99.90
21387;DHT22;10854;45.922;6.716;2022-12-07T08:44:48;-0.20;99.90
21387;DHT22;10854;45.922;6.716;2022-12-07T08:57:51;0.00;99.90
21387;DHT22;10854;45.922;6.716;2022-12-07T09:02:06;0.10;99.90
21387;DHT22;10854;45.922;6.716;2022-12-07T09:06:49;0.10;99.90
21387;DHT22;10854;45.922;6.716;2022-12-07T09:10:11;0.20;99.90
21387;DHT22;10854;45.922;6.716;2022-12-07T09:14:07;0.30;99.90
21387;DHT22;10854;45.922;6.716;2022-12-07T09:17:32;0.40;99.90
21387;DHT22;10854;45.922;6.716;2022-12-07T09:20:43;0.50;99.90
21387;DHT22;10854;45.922;6.716;2022-12-07T09:24:00;0.50;99.90
21387;DHT22;10854;45.922;6.716;2022-12-07T09:28:07;0.50;99.90
21387;DHT22;10854;45.922;6.716;2022-12-07T09:56:46;1.10;99.90
21387;DHT22;10854;45.922;6.716;2022-12-07T10:09:55;1.10;99.90
21387;DHT22;10854;45.922;6.716;2022-12-07T10:14:12;1.20;99.90
21387;DHT22;10854;45.922;6.716;2022-12-07T10:22:16;1.20;99.90
21387;DHT22;10854;45.922;6.716;2022-12-07T10:30:12;1.30;99.90
21387;DHT22;10854;45.922;6.716;2022-12-07T10:34:15;1.40;99.90
21387;DHT22;10854;45.922;6.716;2022-12-07T10:38:28;1.50;99.90
21387;DHT22;10854;45.922;6.716;2022-12-07T10:42:38;1.50;99.90
21387;DHT22;10854;45.922;6.716;2022-12-07T10:51:27;1.60;99.90
21387;DHT22;10854;45.922;6.716;2022-12-07T12:32:46;3.60;96.30
21387;DHT22;10854;45.922;6.716;2022-12-07T13:18:55;3.50;93.80
21387;DHT22;10854;45.922;6.716;2022-12-07T13:27:54;3.50;93.70
21387;DHT22;10854;45.922;6.716;2022-12-07T13:32:17;3.40;93.60
21387;DHT22;10854;45.922;6.716;2022-12-07T13:36:43;3.50;93.90
21387;DHT22;10854;45.922;6.716;2022-12-07T13:40:39;3.40;93.20
21387;DHT22;10854;45.922;6.716;2022-12-07T13:53:00;3.20;93.20
21387;DHT22;10854;45.922;6.716;2022-12-07T14:02:00;3.00;93.50
21387;DHT22;10854;45.922;6.716;2022-12-07T14:07:47;2.90;93.70
21387;DHT22;10854;45.922;6.716;2022-12-07T14:11:28;2.90;93.90
21387;DHT22;10854;45.922;6.716;2022-12-07T14:15:50;2.90;94.30
21387;DHT22;10854;45.922;6.716;2022-12-07T14:20:02;2.90;94.10
21387;DHT22;10854;45.922;6.716;2022-12-07T14:41:10;2.90;94.80
21387;DHT22;10854;45.922;6.716;2022-12-07T14:45:27;2.80;94.50
21387;DHT22;10854;45.922;6.716;2022-12-07T14:52:30;2.70;95.30
21387;DHT22;10854;45.922;6.716;2022-12-07T14:57:04;2.60;95.50
21387;DHT22;10854;45.922;6.716;2022-12-07T15:01:09;2.50;95.70
21387;DHT22;10854;45.922;6.716;2022-12-07T15:05:35;2.50;96.10
21387;DHT22;10854;45.922;6.716;2022-12-07T15:13:52;2.60;96.80
21387;DHT22;10854;45.922;6.716;2022-12-07T15:18:22;2.60;97.00
21387;DHT22;10854;45.922;6.716;2022-12-07T15:22:45;2.50;96.70
21387;DHT22;10854;45.922;6.716;2022-12-07T15:26:48;2.50;96.50
21387;DHT22;10854;45.922;6.716;2022-12-07T15:30:55;2.40;96.50
21387;DHT22;10854;45.922;6.716;2022-12-07T15:34:55;2.40;96.70
21387;DHT22;10854;45.922;6.716;2022-12-07T15:39:33;2.30;96.90
21387;DHT22;10854;45.922;6.716;2022-12-07T15:43:43;2.30;97.00
21387;DHT22;10854;45.922;6.716;2022-12-07T16:01:18;2.10;97.70
21387;DHT22;10854;45.922;6.716;2022-12-07T16:04:43;2.00;97.30
21387;DHT22;10854;45.922;6.716;2022-12-07T16:08:16;2.00;97.60
21387;DHT22;10854;45.922;6.716;2022-12-07T16:12:30;2.00;97.70
21387;DHT22;10854;45.922;6.716;2022-12-07T16:34:00;1.90;98.70
21387;DHT22;10854;45.922;6.716;2022-12-07T16:37:54;1.90;99.00
21387;DHT22;10854;45.922;6.716;2022-12-07T16:42:14;1.80;99.10
21387;DHT22;10854;45.922;6.716;2022-12-07T16:46:41;1.80;99.50
21387;DHT22;10854;45.922;6.716;2022-12-07T16:50:54;1.90;99.80
21387;DHT22;10854;45.922;6.716;2022-12-07T16:54:55;1.90;99.90
21387;DHT22;10854;45.922;6.716;2022-12-07T16:58:18;1.90;99.90
21387;DHT22;10854;45.922;6.716;2022-12-07T17:06:20;1.80;99.90
21387;DHT22;10854;45.922;6.716;2022-12-07T17:09:43;1.80;99.90
21387;DHT22;10854;45.922;6.716;2022-12-07T17:18:11;1.80;99.90
21387;DHT22;10854;45.922;6.716;2022-12-07T17:23:03;1.80;99.90
21387;DHT22;10854;45.922;6.716;2022-12-07T17:26:43;1.70;99.90
21387;DHT22;10854;45.922;6.716;2022-12-07T17:30:24;1.70;99.90
21387;DHT22;10854;45.922;6.716;2022-12-07T17:34:31;1.80;99.90
21387;DHT22;10854;45.922;6.716;2022-12-07T17:38:18;1.70;99.90
21387;DHT22;10854;45.922;6.716;2022-12-07T17:42:41;1.80;99.90
21387;DHT22;10854;45.922;6.716;2022-12-07T18:00:12;1.70;99.90
21387;DHT22;10854;45.922;6.716;2022-12-07T18:25:28;1.70;99.90
21387;DHT22;10854;45.922;6.716;2022-12-07T18:29:22;1.70;99.90
21387;DHT22;10854;45.922;6.716;2022-12-07T18:33:08;1.70;99.90
21387;DHT22;10854;45.922;6.716;2022-12-07T18:37:35;1.70;99.90
21387;DHT22;10854;45.922;6.716;2022-12-07T18:41:28;1.70;99.90
21387;DHT22;10854;45.922;6.716;2022-12-07T18:54:48;1.60;99.90
21387;DHT22;10854;45.922;6.716;2022-12-07T18:58:28;1.60;99.90
21387;DHT22;10854;45.922;6.716;2022-12-07T19:02:47;1.60;99.90
21387;DHT22;10854;45.922;6.716;2022-12-07T19:07:06;1.60;99.90
21387;DHT22;10854;45.922;6.716;2022-12-07T19:10:57;1.60;99.90
21387;DHT22;10854;45.922;6.716;2022-12-07T19:14:50;1.60;99.90
21387;DHT22;10854;45.922;6.716;2022-12-07T19:18:57;1.60;99.90
21387;DHT22;10854;45.922;6.716;2022-12-07T19:28:58;1.60;99.90
21387;DHT22;10854;45.922;6.716;2022-12-07T19:43:16;1.50;99.90
21387;DHT22;10854;45.922;6.716;2022-12-07T19:56:27;1.40;99.90
21387;DHT22;10854;45.922;6.716;2022-12-07T20:00:11;1.40;99.90
21387;DHT22;10854;45.922;6.716;2022-12-07T20:04:31;1.40;99.90
21387;DHT22;10854;45.922;6.716;2022-12-07T20:08:52;1.40;99.60
21387;DHT22;10854;45.922;6.716;2022-12-07T20:12:58;1.30;99.80
21387;DHT22;10854;45.922;6.716;2022-12-07T20:17:17;1.30;99.50
21387;DHT22;10854;45.922;6.716;2022-12-07T20:21:27;1.30;99.20
21387;DHT22;10854;45.922;6.716;2022-12-07T20:25:36;1.20;99.10
21387;DHT22;10854;45.922;6.716;2022-12-07T20:29:27;1.20;99.10
21387;DHT22;10854;45.922;6.716;2022-12-07T20:33:58;1.10;99.20
21387;DHT22;10854;45.922;6.716;2022-12-07T20:38:10;1.10;99.40
21387;DHT22;10854;45.922;6.716;2022-12-07T20:41:59;1.10;99.60
21387;DHT22;10854;45.922;6.716;2022-12-07T20:46:20;1.00;99.50
21387;DHT22;10854;45.922;6.716;2022-12-07T20:50:16;1.00;99.50
21387;DHT22;10854;45.922;6.716;2022-12-07T20:54:25;1.00;99.30
21387;DHT22;10854;45.922;6.716;2022-12-07T20:58:32;0.90;99.30
21387;DHT22;10854;45.922;6.716;2022-12-07T21:01:36;0.90;99.60
21387;DHT22;10854;45.922;6.716;2022-12-07T21:13:28;0.70;99.50
21387;DHT22;10854;45.922;6.716;2022-12-07T21:22:08;0.50;99.70
21387;DHT22;10854;45.922;6.716;2022-12-07T21:26:19;0.40;99.90
21387;DHT22;10854;45.922;6.716;2022-12-07T21:30:15;0.30;99.90
21387;DHT22;10854;45.922;6.716;2022-12-07T21:34:34;0.30;99.90
21387;DHT22;10854;45.922;6.716;2022-12-07T21:38:46;0.20;99.90
21387;DHT22;10854;45.922;6.716;2022-12-07T21:43:05;0.20;99.90
21387;DHT22;10854;45.922;6.716;2022-12-07T21:46:49;0.10;99.90
21387;DHT22;10854;45.922;6.716;2022-12-07T22:06:04;-0.10;99.90
21387;DHT22;10854;45.922;6.716;2022-12-07T22:10:37;-0.20;99.90
21387;DHT22;10854;45.922;6.716;2022-12-07T22:14:11;-0.30;99.90
21387;DHT22;10854;45.922;6.716;2022-12-07T22:17:56;-0.30;99.90
21387;DHT22;10854;45.922;6.716;2022-12-07T22:22:30;-0.40;99.90
21387;DHT22;10854;45.922;6.716;2022-12-07T22:26:54;-0.40;99.90
21387;DHT22;10854;45.922;6.716;2022-12-07T22:31:16;-0.40;99.90
21387;DHT22;10854;45.922;6.716;2022-12-07T23:12:27;-0.70;99.90
21387;DHT22;10854;45.922;6.716;2022-12-07T23:16:37;-0.70;99.90
21387;DHT22;10854;45.922;6.716;2022-12-07T23:20:35;-0.70;99.90
21387;DHT22;10854;45.922;6.716;2022-12-07T23:25:00;-0.80;99.90
21387;DHT22;10854;45.922;6.716;2022-12-07T23:54:52;-0.80;99.90
21387;DHT22;10854;45.922;6.716;2022-12-07T23:59:49;-0.80;99.90
